sensor_id;sensor_type;location;lat;lon;timestamp;P1;durP1;ratioP1;P2;durP2;ratioP2
31598;SDS011;67624;42.674;23.322;2023-03-23T00:00:46;0.10;;;0.10;;
31598;SDS011;67624;42.674;23.322;2023-03-23T00:03:12;0.00;;;0.00;;
31598;SDS011;67624;42.674;23.322;2023-03-23T00:05:38;0.10;;;0.10;;
31598;SDS011;67624;42.674;23.322;2023-03-23T00:08:15;0.10;;;0.10;;
31598;SDS011;67624;42.674;23.322;2023-03-23T00:10:41;0.10;;;0.10;;
31598;SDS011;67624;42.674;23.322;2023-03-23T00:13:08;0.10;;;0.10;;
31598;SDS011;67624;42.674;23.322;2023-03-23T00:15:36;0.10;;;0.10;;
31598;SDS011;67624;42.674;23.322;2023-03-23T00:18:06;0.10;;;0.10;;
31598;SDS011;67624;42.674;23.322;2023-03-23T00:20:32;0.10;;;0.10;;
31598;SDS011;67624;42.674;23.322;2023-03-23T00:23:06;0.10;;;0.10;;
31598;SDS011;67624;42.674;23.322;2023-03-23T00:25:32;0.10;;;0.10;;
31598;SDS011;67624;42.674;23.322;2023-03-23T00:27:59;0.10;;;0.10;;
31598;SDS011;67624;42.674;23.322;2023-03-23T00:30:25;0.10;;;0.10;;
31598;SDS011;67624;42.674;23.322;2023-03-23T00:32:51;0.10;;;0.10;;
31598;SDS011;67624;42.674;23.322;2023-03-23T00:35:17;0.20;;;0.20;;
31598;SDS011;67624;42.674;23.322;2023-03-23T00:37:44;0.10;;;0.10;;
31598;SDS011;67624;42.674;23.322;2023-03-23T00:40:11;0.10;;;0.10;;
31598;SDS011;67624;42.674;23.322;2023-03-23T00:42:37;0.10;;;0.10;;
31598;SDS011;67624;42.674;23.322;2023-03-23T00:45:03;0.10;;;0.10;;
31598;SDS011;67624;42.674;23.322;2023-03-23T00:47:36;0.10;;;0.10;;
31598;SDS011;67624;42.674;23.322;2023-03-23T00:50:02;0.00;;;0.00;;
31598;SDS011;67624;42.674;23.322;2023-03-23T00:52:30;0.10;;;0.10;;
31598;SDS011;67624;42.674;23.322;2023-03-23T00:54:56;0.10;;;0.10;;
31598;SDS011;67624;42.674;23.322;2023-03-23T00:57:22;0.10;;;0.10;;
31598;SDS011;67624;42.674;23.322;2023-03-23T00:59:50;0.05;;;0.05;;
31598;SDS011;67624;42.674;23.322;2023-03-23T01:02:16;0.10;;;0.10;;
31598;SDS011;67624;42.674;23.322;2023-03-23T01:04:43;0.10;;;0.10;;
31598;SDS011;67624;42.674;23.322;2023-03-23T01:07:10;0.10;;;0.10;;
31598;SDS011;67624;42.674;23.322;2023-03-23T01:09:38;0.10;;;0.10;;
31598;SDS011;67624;42.674;23.322;2023-03-23T01:12:05;0.10;;;0.10;;
31598;SDS011;67624;42.674;23.322;2023-03-23T01:14:32;0.10;;;0.10;;
31598;SDS011;67624;42.674;23.322;2023-03-23T01:16:58;0.10;;;0.10;;
31598;SDS011;67624;42.674;23.322;2023-03-23T01:19:24;0.10;;;0.10;;
31598;SDS011;67624;42.674;23.322;2023-03-23T01:21:50;0.00;;;0.00;;
31598;SDS011;67624;42.674;23.322;2023-03-23T01:24:17;0.00;;;0.00;;
31598;SDS011;67624;42.674;23.322;2023-03-23T01:26:43;0.10;;;0.10;;
31598;SDS011;67624;42.674;23.322;2023-03-23T01:29:09;0.10;;;0.10;;
31598;SDS011;67624;42.674;23.322;2023-03-23T01:31:35;0.10;;;0.10;;
31598;SDS011;67624;42.674;23.322;2023-03-23T01:34:02;0.10;;;0.10;;
31598;SDS011;67624;42.674;23.322;2023-03-23T01:36:29;0.10;;;0.10;;
31598;SDS011;67624;42.674;23.322;2023-03-23T01:38:58;0.10;;;0.10;;
31598;SDS011;67624;42.674;23.322;2023-03-23T01:41:26;0.10;;;0.10;;
31598;SDS011;67624;42.674;23.322;2023-03-23T01:46:29;0.10;;;0.10;;
31598;SDS011;67624;42.674;23.322;2023-03-23T01:48:56;0.00;;;0.00;;
31598;SDS011;67624;42.674;23.322;2023-03-23T01:51:23;0.10;;;0.10;;
31598;SDS011;67624;42.674;23.322;2023-03-23T01:53:51;0.10;;;0.10;;
31598;SDS011;67624;42.674;23.322;2023-03-23T01:56:21;0.10;;;0.10;;
31598;SDS011;67624;42.674;23.322;2023-03-23T01:58:54;0.10;;;0.10;;
31598;SDS011;67624;42.674;23.322;2023-03-23T02:01:21;0.10;;;0.10;;
31598;SDS011;67624;42.674;23.322;2023-03-23T02:03:50;0.05;;;0.05;;
31598;SDS011;67624;42.674;23.322;2023-03-23T02:06:17;0.10;;;0.10;;
31598;SDS011;67624;42.674;23.322;2023-03-23T02:08:43;0.10;;;0.10;;
31598;SDS011;67624;42.674;23.322;2023-03-23T02:11:14;0.10;;;0.10;;
31598;SDS011;67624;42.674;23.322;2023-03-23T02:13:40;0.10;;;0.10;;
31598;SDS011;67624;42.674;23.322;2023-03-23T02:16:14;0.10;;;0.10;;
31598;SDS011;67624;42.674;23.322;2023-03-23T02:23:45;0.10;;;0.10;;
31598;SDS011;67624;42.674;23.322;2023-03-23T02:34:16;0.10;;;0.10;;
31598;SDS011;67624;42.674;23.322;2023-03-23T02:39:20;0.20;;;0.20;;
31598;SDS011;67624;42.674;23.322;2023-03-23T02:41:49;0.10;;;0.10;;
31598;SDS011;67624;42.674;23.322;2023-03-23T02:44:16;0.00;;;0.00;;
31598;SDS011;67624;42.674;23.322;2023-03-23T02:46:43;0.10;;;0.10;;
31598;SDS011;67624;42.674;23.322;2023-03-23T02:49:09;0.00;;;0.00;;
31598;SDS011;67624;42.674;23.322;2023-03-23T02:51:38;0.10;;;0.10;;
31598;SDS011;67624;42.674;23.322;2023-03-23T02:54:05;0.10;;;0.10;;
31598;SDS011;67624;42.674;23.322;2023-03-23T02:56:32;0.10;;;0.10;;
31598;SDS011;67624;42.674;23.322;2023-03-23T02:59:01;0.10;;;0.10;;
31598;SDS011;67624;42.674;23.322;2023-03-23T03:03:54;0.10;;;0.10;;
31598;SDS011;67624;42.674;23.322;2023-03-23T03:08:57;0.10;;;0.10;;
31598;SDS011;67624;42.674;23.322;2023-03-23T03:11:28;0.10;;;0.10;;
31598;SDS011;67624;42.674;23.322;2023-03-23T03:13:57;0.10;;;0.10;;
31598;SDS011;67624;42.674;23.322;2023-03-23T03:16:39;0.10;;;0.10;;
31598;SDS011;67624;42.674;23.322;2023-03-23T03:21:37;0.10;;;0.10;;
31598;SDS011;67624;42.674;23.322;2023-03-23T03:24:05;0.10;;;0.10;;
31598;SDS011;67624;42.674;23.322;2023-03-23T03:26:37;0.10;;;0.10;;
31598;SDS011;67624;42.674;23.322;2023-03-23T03:29:03;0.00;;;0.00;;
31598;SDS011;67624;42.674;23.322;2023-03-23T03:31:32;0.10;;;0.10;;
31598;SDS011;67624;42.674;23.322;2023-03-23T03:33:59;0.10;;;0.10;;
31598;SDS011;67624;42.674;23.322;2023-03-23T03:36:30;0.10;;;0.10;;
31598;SDS011;67624;42.674;23.322;2023-03-23T03:41:25;0.13;;;0.13;;
31598;SDS011;67624;42.674;23.322;2023-03-23T03:43:51;0.10;;;0.10;;
31598;SDS011;67624;42.674;23.322;2023-03-23T03:46:17;0.10;;;0.10;;
31598;SDS011;67624;42.674;23.322;2023-03-23T03:48:43;0.10;;;0.10;;
31598;SDS011;67624;42.674;23.322;2023-03-23T03:51:09;0.08;;;0.08;;
31598;SDS011;67624;42.674;23.322;2023-03-23T03:53:36;0.10;;;0.10;;
31598;SDS011;67624;42.674;23.322;2023-03-23T03:56:02;0.10;;;0.10;;
31598;SDS011;67624;42.674;23.322;2023-03-23T03:58:30;0.10;;;0.10;;
31598;SDS011;67624;42.674;23.322;2023-03-23T04:00:59;0.10;;;0.10;;
31598;SDS011;67624;42.674;23.322;2023-03-23T04:03:26;0.10;;;0.10;;
31598;SDS011;67624;42.674;23.322;2023-03-23T04:05:53;0.20;;;0.20;;
31598;SDS011;67624;42.674;23.322;2023-03-23T04:08:20;0.10;;;0.10;;
31598;SDS011;67624;42.674;23.322;2023-03-23T04:10:47;0.00;;;0.00;;
31598;SDS011;67624;42.674;23.322;2023-03-23T04:13:13;0.10;;;0.10;;
31598;SDS011;67624;42.674;23.322;2023-03-23T04:15:40;0.10;;;0.10;;
31598;SDS011;67624;42.674;23.322;2023-03-23T04:18:06;0.00;;;0.00;;
31598;SDS011;67624;42.674;23.322;2023-03-23T04:20:33;0.10;;;0.10;;
31598;SDS011;67624;42.674;23.322;2023-03-23T04:23:00;0.10;;;0.10;;
31598;SDS011;67624;42.674;23.322;2023-03-23T04:25:27;0.10;;;0.10;;
31598;SDS011;67624;42.674;23.322;2023-03-23T04:27:53;0.10;;;0.10;;
31598;SDS011;67624;42.674;23.322;2023-03-23T04:30:20;0.10;;;0.10;;
31598;SDS011;67624;42.674;23.322;2023-03-23T04:32:47;0.17;;;0.17;;
31598;SDS011;67624;42.674;23.322;2023-03-23T04:35:15;0.10;;;0.10;;
31598;SDS011;67624;42.674;23.322;2023-03-23T04:37:42;0.10;;;0.10;;
31598;SDS011;67624;42.674;23.322;2023-03-23T04:40:09;0.10;;;0.10;;
31598;SDS011;67624;42.674;23.322;2023-03-23T04:42:42;0.10;;;0.10;;
31598;SDS011;67624;42.674;23.322;2023-03-23T04:45:11;0.10;;;0.10;;
31598;SDS011;67624;42.674;23.322;2023-03-23T04:47:39;0.20;;;0.20;;
31598;SDS011;67624;42.674;23.322;2023-03-23T04:50:09;0.10;;;0.10;;
31598;SDS011;67624;42.674;23.322;2023-03-23T04:52:37;0.00;;;0.00;;
31598;SDS011;67624;42.674;23.322;2023-03-23T04:55:08;0.10;;;0.10;;
31598;SDS011;67624;42.674;23.322;2023-03-23T04:57:34;0.10;;;0.10;;
31598;SDS011;67624;42.674;23.322;2023-03-23T05:00:01;0.10;;;0.10;;
31598;SDS011;67624;42.674;23.322;2023-03-23T05:02:34;0.10;;;0.10;;
31598;SDS011;67624;42.674;23.322;2023-03-23T05:05:00;0.10;;;0.10;;
31598;SDS011;67624;42.674;23.322;2023-03-23T05:07:27;0.10;;;0.10;;
31598;SDS011;67624;42.674;23.322;2023-03-23T05:09:53;0.13;;;0.13;;
31598;SDS011;67624;42.674;23.322;2023-03-23T05:12:19;0.10;;;0.10;;
31598;SDS011;67624;42.674;23.322;2023-03-23T05:14:45;0.13;;;0.13;;
31598;SDS011;67624;42.674;23.322;2023-03-23T05:17:11;0.10;;;0.10;;
31598;SDS011;67624;42.674;23.322;2023-03-23T05:19:43;0.10;;;0.10;;
31598;SDS011;67624;42.674;23.322;2023-03-23T05:22:13;0.10;;;0.10;;
31598;SDS011;67624;42.674;23.322;2023-03-23T05:24:39;0.10;;;0.10;;
31598;SDS011;67624;42.674;23.322;2023-03-23T05:27:07;0.10;;;0.10;;
31598;SDS011;67624;42.674;23.322;2023-03-23T05:29:34;0.10;;;0.10;;
31598;SDS011;67624;42.674;23.322;2023-03-23T05:32:04;0.10;;;0.10;;
31598;SDS011;67624;42.674;23.322;2023-03-23T05:34:30;0.10;;;0.10;;
31598;SDS011;67624;42.674;23.322;2023-03-23T05:37:00;0.10;;;0.10;;
31598;SDS011;67624;42.674;23.322;2023-03-23T05:39:28;0.10;;;0.10;;
31598;SDS011;67624;42.674;23.322;2023-03-23T05:41:54;0.10;;;0.10;;
31598;SDS011;67624;42.674;23.322;2023-03-23T05:44:21;0.10;;;0.10;;
31598;SDS011;67624;42.674;23.322;2023-03-23T05:46:47;0.17;;;0.17;;
31598;SDS011;67624;42.674;23.322;2023-03-23T05:49:14;0.10;;;0.10;;
31598;SDS011;67624;42.674;23.322;2023-03-23T05:51:41;0.10;;;0.10;;
31598;SDS011;67624;42.674;23.322;2023-03-23T05:54:07;0.00;;;0.00;;
31598;SDS011;67624;42.674;23.322;2023-03-23T05:56:35;0.03;;;0.03;;
31598;SDS011;67624;42.674;23.322;2023-03-23T05:59:01;0.03;;;0.03;;
31598;SDS011;67624;42.674;23.322;2023-03-23T06:01:27;0.10;;;0.10;;
31598;SDS011;67624;42.674;23.322;2023-03-23T06:03:54;0.10;;;0.10;;
31598;SDS011;67624;42.674;23.322;2023-03-23T06:06:26;0.10;;;0.10;;
31598;SDS011;67624;42.674;23.322;2023-03-23T06:08:52;0.10;;;0.10;;
31598;SDS011;67624;42.674;23.322;2023-03-23T06:11:18;0.10;;;0.10;;
31598;SDS011;67624;42.674;23.322;2023-03-23T06:13:44;0.10;;;0.10;;
31598;SDS011;67624;42.674;23.322;2023-03-23T06:16:11;0.10;;;0.10;;
31598;SDS011;67624;42.674;23.322;2023-03-23T06:18:37;0.10;;;0.10;;
31598;SDS011;67624;42.674;23.322;2023-03-23T06:21:05;0.20;;;0.20;;
31598;SDS011;67624;42.674;23.322;2023-03-23T06:23:32;0.10;;;0.10;;
31598;SDS011;67624;42.674;23.322;2023-03-23T06:26:00;0.10;;;0.10;;
31598;SDS011;67624;42.674;23.322;2023-03-23T06:28:26;0.10;;;0.10;;
31598;SDS011;67624;42.674;23.322;2023-03-23T06:30:52;0.10;;;0.10;;
31598;SDS011;67624;42.674;23.322;2023-03-23T06:33:19;0.10;;;0.10;;
31598;SDS011;67624;42.674;23.322;2023-03-23T06:35:48;0.10;;;0.10;;
31598;SDS011;67624;42.674;23.322;2023-03-23T06:38:14;0.10;;;0.10;;
31598;SDS011;67624;42.674;23.322;2023-03-23T06:40:41;0.10;;;0.10;;
31598;SDS011;67624;42.674;23.322;2023-03-23T06:43:11;0.10;;;0.10;;
31598;SDS011;67624;42.674;23.322;2023-03-23T06:45:37;0.10;;;0.10;;
31598;SDS011;67624;42.674;23.322;2023-03-23T06:48:03;0.10;;;0.10;;
31598;SDS011;67624;42.674;23.322;2023-03-23T06:50:29;0.10;;;0.10;;
31598;SDS011;67624;42.674;23.322;2023-03-23T06:52:56;0.10;;;0.10;;
31598;SDS011;67624;42.674;23.322;2023-03-23T06:55:22;0.10;;;0.10;;
31598;SDS011;67624;42.674;23.322;2023-03-23T06:57:48;0.10;;;0.10;;
31598;SDS011;67624;42.674;23.322;2023-03-23T07:00:15;0.10;;;0.10;;
31598;SDS011;67624;42.674;23.322;2023-03-23T07:02:41;0.10;;;0.10;;
31598;SDS011;67624;42.674;23.322;2023-03-23T07:05:08;0.10;;;0.10;;
31598;SDS011;67624;42.674;23.322;2023-03-23T07:07:38;0.10;;;0.10;;
31598;SDS011;67624;42.674;23.322;2023-03-23T07:10:05;0.10;;;0.10;;
31598;SDS011;67624;42.674;23.322;2023-03-23T07:12:32;0.10;;;0.10;;
31598;SDS011;67624;42.674;23.322;2023-03-23T07:15:02;0.15;;;0.15;;
31598;SDS011;67624;42.674;23.322;2023-03-23T07:17:28;0.10;;;0.10;;
31598;SDS011;67624;42.674;23.322;2023-03-23T07:19:54;0.10;;;0.10;;
31598;SDS011;67624;42.674;23.322;2023-03-23T07:22:21;0.10;;;0.10;;
31598;SDS011;67624;42.674;23.322;2023-03-23T07:24:47;0.10;;;0.10;;
31598;SDS011;67624;42.674;23.322;2023-03-23T07:27:13;0.10;;;0.10;;
31598;SDS011;67624;42.674;23.322;2023-03-23T07:29:40;0.00;;;0.00;;
31598;SDS011;67624;42.674;23.322;2023-03-23T07:32:11;0.00;;;0.00;;
31598;SDS011;67624;42.674;23.322;2023-03-23T07:34:38;0.10;;;0.10;;
31598;SDS011;67624;42.674;23.322;2023-03-23T07:37:04;0.10;;;0.10;;
31598;SDS011;67624;42.674;23.322;2023-03-23T07:39:31;0.10;;;0.10;;
31598;SDS011;67624;42.674;23.322;2023-03-23T07:41:58;0.10;;;0.10;;
31598;SDS011;67624;42.674;23.322;2023-03-23T07:44:24;0.10;;;0.10;;
31598;SDS011;67624;42.674;23.322;2023-03-23T07:46:51;0.05;;;0.05;;
31598;SDS011;67624;42.674;23.322;2023-03-23T07:49:17;0.10;;;0.10;;
31598;SDS011;67624;42.674;23.322;2023-03-23T07:51:44;0.10;;;0.10;;
31598;SDS011;67624;42.674;23.322;2023-03-23T07:54:10;0.10;;;0.10;;
31598;SDS011;67624;42.674;23.322;2023-03-23T07:56:36;0.10;;;0.10;;
31598;SDS011;67624;42.674;23.322;2023-03-23T07:59:05;0.10;;;0.10;;
31598;SDS011;67624;42.674;23.322;2023-03-23T08:01:31;0.10;;;0.10;;
31598;SDS011;67624;42.674;23.322;2023-03-23T08:03:58;0.10;;;0.10;;
31598;SDS011;67624;42.674;23.322;2023-03-23T08:06:24;0.10;;;0.10;;
31598;SDS011;67624;42.674;23.322;2023-03-23T08:08:51;0.08;;;0.08;;
31598;SDS011;67624;42.674;23.322;2023-03-23T08:11:17;0.10;;;0.10;;
31598;SDS011;67624;42.674;23.322;2023-03-23T08:13:44;0.10;;;0.10;;
31598;SDS011;67624;42.674;23.322;2023-03-23T08:16:10;0.10;;;0.10;;
31598;SDS011;67624;42.674;23.322;2023-03-23T08:18:37;0.10;;;0.10;;
31598;SDS011;67624;42.674;23.322;2023-03-23T08:21:04;0.10;;;0.10;;
31598;SDS011;67624;42.674;23.322;2023-03-23T08:23:31;0.10;;;0.10;;
31598;SDS011;67624;42.674;23.322;2023-03-23T08:25:58;0.10;;;0.10;;
31598;SDS011;67624;42.674;23.322;2023-03-23T08:28:24;0.10;;;0.10;;
31598;SDS011;67624;42.674;23.322;2023-03-23T08:30:50;0.10;;;0.10;;
31598;SDS011;67624;42.674;23.322;2023-03-23T08:33:16;0.08;;;0.08;;
31598;SDS011;67624;42.674;23.322;2023-03-23T08:35:42;0.10;;;0.10;;
31598;SDS011;67624;42.674;23.322;2023-03-23T08:38:10;0.00;;;0.00;;
31598;SDS011;67624;42.674;23.322;2023-03-23T08:40:36;0.10;;;0.10;;
31598;SDS011;67624;42.674;23.322;2023-03-23T08:43:04;0.10;;;0.10;;
31598;SDS011;67624;42.674;23.322;2023-03-23T08:45:30;0.10;;;0.10;;
31598;SDS011;67624;42.674;23.322;2023-03-23T08:47:56;0.10;;;0.10;;
31598;SDS011;67624;42.674;23.322;2023-03-23T08:50:25;0.10;;;0.10;;
31598;SDS011;67624;42.674;23.322;2023-03-23T08:52:51;0.10;;;0.10;;
31598;SDS011;67624;42.674;23.322;2023-03-23T08:55:18;0.22;;;0.22;;
31598;SDS011;67624;42.674;23.322;2023-03-23T08:57:44;0.10;;;0.10;;
31598;SDS011;67624;42.674;23.322;2023-03-23T09:00:12;0.10;;;0.10;;
31598;SDS011;67624;42.674;23.322;2023-03-23T09:02:50;0.10;;;0.10;;
31598;SDS011;67624;42.674;23.322;2023-03-23T09:05:18;0.10;;;0.10;;
31598;SDS011;67624;42.674;23.322;2023-03-23T09:07:46;0.00;;;0.00;;
31598;SDS011;67624;42.674;23.322;2023-03-23T09:10:13;0.10;;;0.10;;
31598;SDS011;67624;42.674;23.322;2023-03-23T09:12:40;0.10;;;0.10;;
31598;SDS011;67624;42.674;23.322;2023-03-23T09:15:07;0.10;;;0.10;;
31598;SDS011;67624;42.674;23.322;2023-03-23T09:17:34;0.10;;;0.10;;
31598;SDS011;67624;42.674;23.322;2023-03-23T09:20:01;0.00;;;0.00;;
31598;SDS011;67624;42.674;23.322;2023-03-23T09:22:29;0.00;;;0.00;;
31598;SDS011;67624;42.674;23.322;2023-03-23T09:24:55;0.10;;;0.10;;
31598;SDS011;67624;42.674;23.322;2023-03-23T09:27:21;0.00;;;0.00;;
31598;SDS011;67624;42.674;23.322;2023-03-23T09:29:47;0.10;;;0.10;;
31598;SDS011;67624;42.674;23.322;2023-03-23T09:32:14;0.10;;;0.10;;
31598;SDS011;67624;42.674;23.322;2023-03-23T09:34:40;0.03;;;0.03;;
31598;SDS011;67624;42.674;23.322;2023-03-23T09:37:06;0.10;;;0.10;;
31598;SDS011;67624;42.674;23.322;2023-03-23T09:39:33;0.00;;;0.00;;
31598;SDS011;67624;42.674;23.322;2023-03-23T09:42:11;0.10;;;0.10;;
31598;SDS011;67624;42.674;23.322;2023-03-23T09:44:45;0.00;;;0.00;;
31598;SDS011;67624;42.674;23.322;2023-03-23T09:49:50;0.10;;;0.10;;
31598;SDS011;67624;42.674;23.322;2023-03-23T09:52:18;0.10;;;0.10;;
31598;SDS011;67624;42.674;23.322;2023-03-23T09:54:52;0.00;;;0.00;;
31598;SDS011;67624;42.674;23.322;2023-03-23T09:57:25;0.10;;;0.10;;
31598;SDS011;67624;42.674;23.322;2023-03-23T09:59:57;0.10;;;0.10;;
31598;SDS011;67624;42.674;23.322;2023-03-23T10:02:27;0.10;;;0.10;;
31598;SDS011;67624;42.674;23.322;2023-03-23T10:04:54;0.10;;;0.10;;
31598;SDS011;67624;42.674;23.322;2023-03-23T10:07:22;0.10;;;0.10;;
31598;SDS011;67624;42.674;23.322;2023-03-23T10:09:57;0.10;;;0.10;;
31598;SDS011;67624;42.674;23.322;2023-03-23T10:12:42;0.10;;;0.10;;
31598;SDS011;67624;42.674;23.322;2023-03-23T10:15:18;0.10;;;0.10;;
31598;SDS011;67624;42.674;23.322;2023-03-23T10:22:42;0.08;;;0.08;;
31598;SDS011;67624;42.674;23.322;2023-03-23T10:27:45;0.00;;;0.00;;
31598;SDS011;67624;42.674;23.322;2023-03-23T10:30:15;0.10;;;0.10;;
31598;SDS011;67624;42.674;23.322;2023-03-23T10:35:11;0.10;;;0.10;;
31598;SDS011;67624;42.674;23.322;2023-03-23T10:37:38;0.00;;;0.00;;
31598;SDS011;67624;42.674;23.322;2023-03-23T10:40:12;0.00;;;0.00;;
31598;SDS011;67624;42.674;23.322;2023-03-23T10:42:42;0.10;;;0.10;;
31598;SDS011;67624;42.674;23.322;2023-03-23T10:45:19;0.00;;;0.00;;
31598;SDS011;67624;42.674;23.322;2023-03-23T10:50:34;0.00;;;0.00;;
31598;SDS011;67624;42.674;23.322;2023-03-23T10:53:00;0.00;;;0.00;;
31598;SDS011;67624;42.674;23.322;2023-03-23T10:55:38;0.10;;;0.10;;
31598;SDS011;67624;42.674;23.322;2023-03-23T10:58:06;0.20;;;0.20;;
31598;SDS011;67624;42.674;23.322;2023-03-23T11:00:33;0.00;;;0.00;;
31598;SDS011;67624;42.674;23.322;2023-03-23T11:03:00;0.03;;;0.03;;
31598;SDS011;67624;42.674;23.322;2023-03-23T11:05:47;0.10;;;0.10;;
31598;SDS011;67624;42.674;23.322;2023-03-23T11:08:16;0.00;;;0.00;;
31598;SDS011;67624;42.674;23.322;2023-03-23T11:13:13;0.10;;;0.10;;
31598;SDS011;67624;42.674;23.322;2023-03-23T11:15:41;0.10;;;0.10;;
31598;SDS011;67624;42.674;23.322;2023-03-23T11:18:12;0.00;;;0.00;;
31598;SDS011;67624;42.674;23.322;2023-03-23T11:20:42;0.10;;;0.10;;
31598;SDS011;67624;42.674;23.322;2023-03-23T11:23:10;0.10;;;0.10;;
31598;SDS011;67624;42.674;23.322;2023-03-23T11:28:25;0.10;;;0.10;;
31598;SDS011;67624;42.674;23.322;2023-03-23T11:30:53;0.00;;;0.00;;
31598;SDS011;67624;42.674;23.322;2023-03-23T11:33:19;0.08;;;0.08;;
31598;SDS011;67624;42.674;23.322;2023-03-23T11:35:45;0.00;;;0.00;;
31598;SDS011;67624;42.674;23.322;2023-03-23T11:38:16;0.10;;;0.10;;
31598;SDS011;67624;42.674;23.322;2023-03-23T11:40:47;0.00;;;0.00;;
31598;SDS011;67624;42.674;23.322;2023-03-23T11:43:14;0.10;;;0.10;;
31598;SDS011;67624;42.674;23.322;2023-03-23T11:51:01;0.10;;;0.10;;
31598;SDS011;67624;42.674;23.322;2023-03-23T11:58:38;0.10;;;0.10;;
31598;SDS011;67624;42.674;23.322;2023-03-23T12:11:51;0.10;;;0.10;;
31598;SDS011;67624;42.674;23.322;2023-03-23T12:14:36;0.00;;;0.00;;
31598;SDS011;67624;42.674;23.322;2023-03-23T12:19:58;0.10;;;0.10;;
31598;SDS011;67624;42.674;23.322;2023-03-23T12:22:40;0.10;;;0.10;;
31598;SDS011;67624;42.674;23.322;2023-03-23T12:35:32;0.10;;;0.10;;
31598;SDS011;67624;42.674;23.322;2023-03-23T12:38:08;0.10;;;0.10;;
31598;SDS011;67624;42.674;23.322;2023-03-23T12:46:11;0.10;;;0.10;;
31598;SDS011;67624;42.674;23.322;2023-03-23T12:48:41;0.10;;;0.10;;
31598;SDS011;67624;42.674;23.322;2023-03-23T12:51:26;0.10;;;0.10;;
31598;SDS011;67624;42.674;23.322;2023-03-23T12:56:37;0.10;;;0.10;;
31598;SDS011;67624;42.674;23.322;2023-03-23T13:01:32;0.10;;;0.10;;
31598;SDS011;67624;42.674;23.322;2023-03-23T13:11:27;0.15;;;0.15;;
31598;SDS011;67624;42.674;23.322;2023-03-23T13:13:55;0.20;;;0.20;;
31598;SDS011;67624;42.674;23.322;2023-03-23T13:21:35;0.10;;;0.10;;
31598;SDS011;67624;42.674;23.322;2023-03-23T13:24:05;0.30;;;0.30;;
31598;SDS011;67624;42.674;23.322;2023-03-23T13:26:36;0.15;;;0.15;;
31598;SDS011;67624;42.674;23.322;2023-03-23T13:29:15;0.20;;;0.20;;
31598;SDS011;67624;42.674;23.322;2023-03-23T13:31:46;0.17;;;0.17;;
31598;SDS011;67624;42.674;23.322;2023-03-23T13:34:18;0.20;;;0.20;;
31598;SDS011;67624;42.674;23.322;2023-03-23T13:37:04;0.20;;;0.20;;
31598;SDS011;67624;42.674;23.322;2023-03-23T13:42:28;0.20;;;0.20;;
31598;SDS011;67624;42.674;23.322;2023-03-23T13:45:19;0.25;;;0.25;;
31598;SDS011;67624;42.674;23.322;2023-03-23T13:47:46;0.20;;;0.20;;
31598;SDS011;67624;42.674;23.322;2023-03-23T14:03:33;0.25;;;0.25;;
31598;SDS011;67624;42.674;23.322;2023-03-23T14:08:35;0.20;;;0.20;;
31598;SDS011;67624;42.674;23.322;2023-03-23T14:11:15;0.20;;;0.20;;
31598;SDS011;67624;42.674;23.322;2023-03-23T14:13:47;0.20;;;0.20;;
31598;SDS011;67624;42.674;23.322;2023-03-23T14:18:46;0.20;;;0.20;;
31598;SDS011;67624;42.674;23.322;2023-03-23T14:21:16;0.30;;;0.30;;
31598;SDS011;67624;42.674;23.322;2023-03-23T14:23:42;0.20;;;0.20;;
31598;SDS011;67624;42.674;23.322;2023-03-23T14:26:15;0.30;;;0.30;;
31598;SDS011;67624;42.674;23.322;2023-03-23T14:28:43;0.20;;;0.20;;
31598;SDS011;67624;42.674;23.322;2023-03-23T14:31:14;0.20;;;0.20;;
31598;SDS011;67624;42.674;23.322;2023-03-23T14:33:41;0.20;;;0.20;;
31598;SDS011;67624;42.674;23.322;2023-03-23T14:36:07;0.20;;;0.20;;
31598;SDS011;67624;42.674;23.322;2023-03-23T14:38:34;0.40;;;0.40;;
31598;SDS011;67624;42.674;23.322;2023-03-23T14:41:01;0.30;;;0.30;;
31598;SDS011;67624;42.674;23.322;2023-03-23T14:43:27;0.30;;;0.30;;
31598;SDS011;67624;42.674;23.322;2023-03-23T14:45:55;0.20;;;0.20;;
31598;SDS011;67624;42.674;23.322;2023-03-23T14:48:22;0.30;;;0.30;;
31598;SDS011;67624;42.674;23.322;2023-03-23T14:50:49;0.20;;;0.20;;
31598;SDS011;67624;42.674;23.322;2023-03-23T14:55:49;0.30;;;0.30;;
31598;SDS011;67624;42.674;23.322;2023-03-23T14:58:16;0.20;;;0.20;;
31598;SDS011;67624;42.674;23.322;2023-03-23T15:01:03;0.30;;;0.30;;
31598;SDS011;67624;42.674;23.322;2023-03-23T15:03:33;0.20;;;0.20;;
31598;SDS011;67624;42.674;23.322;2023-03-23T15:06:01;0.30;;;0.30;;
31598;SDS011;67624;42.674;23.322;2023-03-23T15:11:12;0.20;;;0.20;;
31598;SDS011;67624;42.674;23.322;2023-03-23T15:13:42;0.20;;;0.20;;
31598;SDS011;67624;42.674;23.322;2023-03-23T15:16:13;0.20;;;0.20;;
31598;SDS011;67624;42.674;23.322;2023-03-23T15:18:40;0.20;;;0.20;;
31598;SDS011;67624;42.674;23.322;2023-03-23T15:21:11;0.20;;;0.20;;
31598;SDS011;67624;42.674;23.322;2023-03-23T15:23:41;0.20;;;0.20;;
31598;SDS011;67624;42.674;23.322;2023-03-23T15:31:45;0.20;;;0.20;;
31598;SDS011;67624;42.674;23.322;2023-03-23T15:34:16;0.20;;;0.20;;
31598;SDS011;67624;42.674;23.322;2023-03-23T15:36:43;0.20;;;0.20;;
31598;SDS011;67624;42.674;23.322;2023-03-23T15:39:11;0.20;;;0.20;;
31598;SDS011;67624;42.674;23.322;2023-03-23T15:41:45;0.30;;;0.30;;
31598;SDS011;67624;42.674;23.322;2023-03-23T15:44:12;0.20;;;0.20;;
31598;SDS011;67624;42.674;23.322;2023-03-23T15:46:47;0.20;;;0.20;;
31598;SDS011;67624;42.674;23.322;2023-03-23T15:49:15;0.30;;;0.30;;
31598;SDS011;67624;42.674;23.322;2023-03-23T15:51:41;0.30;;;0.30;;
31598;SDS011;67624;42.674;23.322;2023-03-23T15:54:12;0.30;;;0.30;;
31598;SDS011;67624;42.674;23.322;2023-03-23T15:56:39;0.20;;;0.20;;
31598;SDS011;67624;42.674;23.322;2023-03-23T15:59:05;0.10;;;0.10;;
31598;SDS011;67624;42.674;23.322;2023-03-23T16:01:33;0.20;;;0.20;;
31598;SDS011;67624;42.674;23.322;2023-03-23T16:04:00;0.20;;;0.20;;
31598;SDS011;67624;42.674;23.322;2023-03-23T16:06:29;0.20;;;0.20;;
31598;SDS011;67624;42.674;23.322;2023-03-23T16:08:56;0.30;;;0.30;;
31598;SDS011;67624;42.674;23.322;2023-03-23T16:11:23;0.20;;;0.20;;
31598;SDS011;67624;42.674;23.322;2023-03-23T16:13:49;0.20;;;0.20;;
31598;SDS011;67624;42.674;23.322;2023-03-23T16:16:17;0.10;;;0.10;;
31598;SDS011;67624;42.674;23.322;2023-03-23T16:18:44;0.10;;;0.10;;
31598;SDS011;67624;42.674;23.322;2023-03-23T16:21:10;0.10;;;0.10;;
31598;SDS011;67624;42.674;23.322;2023-03-23T16:23:36;0.03;;;0.03;;
31598;SDS011;67624;42.674;23.322;2023-03-23T16:26:02;0.10;;;0.10;;
31598;SDS011;67624;42.674;23.322;2023-03-23T16:28:28;0.17;;;0.17;;
31598;SDS011;67624;42.674;23.322;2023-03-23T16:30:55;0.00;;;0.00;;
31598;SDS011;67624;42.674;23.322;2023-03-23T16:33:21;0.10;;;0.10;;
31598;SDS011;67624;42.674;23.322;2023-03-23T16:35:47;0.00;;;0.00;;
31598;SDS011;67624;42.674;23.322;2023-03-23T16:38:14;0.10;;;0.10;;
31598;SDS011;67624;42.674;23.322;2023-03-23T16:40:42;0.00;;;0.00;;
31598;SDS011;67624;42.674;23.322;2023-03-23T16:43:08;0.00;;;0.00;;
31598;SDS011;67624;42.674;23.322;2023-03-23T16:45:38;0.08;;;0.08;;
31598;SDS011;67624;42.674;23.322;2023-03-23T16:48:05;0.00;;;0.00;;
31598;SDS011;67624;42.674;23.322;2023-03-23T16:50:32;0.00;;;0.00;;
31598;SDS011;67624;42.674;23.322;2023-03-23T16:52:58;0.00;;;0.00;;
31598;SDS011;67624;42.674;23.322;2023-03-23T16:55:24;0.00;;;0.00;;
31598;SDS011;67624;42.674;23.322;2023-03-23T16:57:51;0.00;;;0.00;;